Terminal Aerodrome Forecast
Issued by NWS

Home | Current Version | Previous Version | Text Only | Print | Product List | Glossary On
Versions: 1 2 3 4 5 6 7 8 9 10 11 12 13 14
000
FTUS44 KLZK 030100 AAA
TAFHOT
TAF AMD
KHOT 030108Z 0301/0324 24007KT P6SM FEW050 BKN150
     FM030500 24005KT P6SM VCTS SCT030CB BKN060
     FM031000 24010KT P6SM -TSRA BKN025CB OVC050
     FM031500 25011G16KT P6SM VCTS BKN025CB OVC050=

USA.gov is the U.S. government's official web portal to all federal, state and local government web resources and services.